»·PEaware :: SWA250 KSFO-KLAX

SWA250 :: KSFO-KLAX

FLIGHT INFORMATION

Flight Status: Arrived
Operator:
Southwest Airlines
More flights by this operator :: More flights under this callsign
Pilot: Andrew J. (13363)
Aircraft: BOEING 737-800
(B738)
More flights by this aircraft type
Origin: KSFO San Francisco Intl
United States
Destination: KLAX Los Angeles Intl
United States
More flights between these airports :: More routes between these airports
Route: WESLA3 EBAYE BURGL IRNMN2
File this flight plan on PilotEdge
Remarks:
Altitude:
(Current/Filed)
37,000ft
Speed:
(Current/Filed)
468kts
Departed: 11-Oct-18 09:37 PM
Arrived: 11-Oct-18 10:38 PM
Distance/Time
Traveled:
293nm/1:01
Distance/Time
To Go:
Arrived

Flight Plot

Page will automatically refresh every two minutes.

Flight plan parsing failed; only flown route is shown


Map Options




Map Legend


Flown Route
Filed Route
Departure Airport
Arrival Airport
Navaid (VOR, NDB)
Fix

Horizontal Profiles

Position Reports

Time Latitude Longitude Heading Altitude Ground
Speed
11-Oct-18 21:08 37.612830 -122.383166 296 20ft 0kts
11-Oct-18 21:09 37.612830 -122.383166 296 20ft 0kts
11-Oct-18 21:10 37.612830 -122.383166 296 20ft 0kts
11-Oct-18 21:11 37.612830 -122.383166 296 20ft 0kts
11-Oct-18 21:12 37.612830 -122.383166 296 20ft 0kts
11-Oct-18 21:13 37.612830 -122.383166 296 20ft 0kts
11-Oct-18 21:14 37.612830 -122.383166 296 20ft 0kts
11-Oct-18 21:15 37.612830 -122.383166 296 20ft 0kts
11-Oct-18 21:16 37.612830 -122.383166 296 20ft 0kts
11-Oct-18 21:17 37.612830 -122.383166 296 20ft 0kts
11-Oct-18 21:18 37.612830 -122.383166 296 20ft 0kts
11-Oct-18 21:19 37.612830 -122.383166 296 20ft 0kts
11-Oct-18 21:20 37.612830 -122.383166 296 20ft 0kts
11-Oct-18 21:21 37.612830 -122.383166 296 20ft 0kts
11-Oct-18 21:22 37.612830 -122.383166 296 20ft 0kts
11-Oct-18 21:23 37.612830 -122.383166 296 20ft 0kts
11-Oct-18 21:24 37.612830 -122.383166 296 20ft 0kts
11-Oct-18 21:25 37.612830 -122.383166 296 20ft 0kts
11-Oct-18 21:26 37.612830 -122.383166 296 20ft 0kts
11-Oct-18 21:27 37.612830 -122.383166 296 20ft 0kts
11-Oct-18 21:28 37.612830 -122.383166 296 20ft 0kts
11-Oct-18 21:29 37.612830 -122.383166 296 20ft 0kts
11-Oct-18 21:30 37.612751 -122.382968 296 20ft 2kts
11-Oct-18 21:31 37.612285 -122.382565 3 20ft 2kts
11-Oct-18 21:32 37.612167 -122.382590 17 20ft 0kts
11-Oct-18 21:33 37.613564 -122.381661 27 20ft 23kts
11-Oct-18 21:34 37.616714 -122.378477 96 20ft 2kts
11-Oct-18 21:35 37.616429 -122.375487 97 20ft 7kts
11-Oct-18 21:36 37.613604 -122.367626 125 20ft 34kts
11-Oct-18 21:37 37.611260 -122.358816 31 20ft 17kts
11-Oct-18 21:38 37.611949 -122.358934 298 20ft 0kts
11-Oct-18 21:39 37.613121 -122.361729 297 20ft 58kts
11-Oct-18 21:40 37.631560 -122.404063 296 1683ft 175kts
11-Oct-18 21:41 37.651475 -122.469309 303 3748ft 216kts
11-Oct-18 21:42 37.624088 -122.525746 172 5986ft 286kts
11-Oct-18 21:43 37.546887 -122.497462 160 9818ft 295kts
11-Oct-18 21:44 37.468412 -122.455159 135 12836ft 318kts
11-Oct-18 21:45 37.411288 -122.368558 128 15921ft 332kts
11-Oct-18 21:46 37.352009 -122.287329 129 18585ft 346kts
11-Oct-18 21:47 37.285825 -122.197673 129 18944ft 348kts
11-Oct-18 21:48 37.220016 -122.108779 129 18945ft 348kts
11-Oct-18 21:49 37.153023 -122.018529 129 21079ft 360kts
11-Oct-18 21:50 37.083638 -121.925253 129 23234ft 379kts
11-Oct-18 21:51 37.009493 -121.825822 130 25051ft 402kts
11-Oct-18 21:52 36.931792 -121.722069 132 26942ft 417kts
11-Oct-18 21:53 36.852082 -121.616044 132 28683ft 429kts
11-Oct-18 21:54 36.769455 -121.506475 132 30176ft 438kts
11-Oct-18 21:55 36.686166 -121.396391 133 31969ft 436kts
11-Oct-18 21:56 36.603424 -121.287371 134 33658ft 432kts
11-Oct-18 21:57 36.521359 -121.179584 134 35161ft 429kts
11-Oct-18 21:58 36.439265 -121.072090 135 36410ft 429kts
11-Oct-18 21:59 36.360233 -120.959706 133 36943ft 445kts
11-Oct-18 22:00 36.277427 -120.840859 133 36918ft 461kts
11-Oct-18 22:01 36.193473 -120.720792 133 36924ft 460kts
11-Oct-18 22:02 36.109723 -120.601525 133 36919ft 461kts
11-Oct-18 22:03 36.025705 -120.482293 133 36919ft 460kts
11-Oct-18 22:04 35.941735 -120.363552 133 36917ft 460kts
11-Oct-18 22:05 35.859283 -120.254930 145 36932ft 456kts
11-Oct-18 22:06 35.752579 -120.172580 152 36926ft 453kts
11-Oct-18 22:07 35.645594 -120.092242 151 36925ft 454kts
11-Oct-18 22:08 35.538409 -120.011422 151 36926ft 453kts
11-Oct-18 22:09 35.431080 -119.930725 151 36928ft 453kts
11-Oct-18 22:10 35.323936 -119.850417 151 36924ft 451kts
11-Oct-18 22:11 35.221770 -119.761815 145 36938ft 454kts
11-Oct-18 22:12 35.122012 -119.668490 145 35961ft 453kts
11-Oct-18 22:13 35.021183 -119.574644 145 32446ft 459kts
11-Oct-18 22:14 34.920565 -119.481192 146 29031ft 448kts
11-Oct-18 22:15 34.829798 -119.399566 148 28901ft 445kts
11-Oct-18 22:16 34.731191 -119.311716 148 26094ft 433kts
11-Oct-18 22:17 34.635260 -119.228116 147 23907ft 402kts
11-Oct-18 22:18 34.552049 -119.156331 147 23921ft 368kts
11-Oct-18 22:19 34.468316 -119.082319 146 22957ft 368kts
11-Oct-18 22:20 34.386638 -119.010938 145 20309ft 359kts
11-Oct-18 22:21 34.306823 -118.940726 143 16291ft 353kts
11-Oct-18 22:22 34.231424 -118.871993 142 13372ft 327kts
11-Oct-18 22:23 34.163182 -118.809241 141 12294ft 289kts
11-Oct-18 22:24 34.103765 -118.744338 137 11493ft 287kts
11-Oct-18 22:25 34.045816 -118.681088 132 10153ft 272kts
11-Oct-18 22:26 34.023280 -118.597362 95 8770ft 267kts
11-Oct-18 22:27 34.024765 -118.509716 81 7180ft 262kts
11-Oct-18 22:28 34.035004 -118.423689 81 6011ft 248kts
11-Oct-18 22:29 34.045137 -118.347236 82 4963ft 233kts
11-Oct-18 22:30 34.061373 -118.273277 71 3589ft 223kts
11-Oct-18 22:31 34.079497 -118.206537 80 2825ft 204kts
11-Oct-18 22:32 34.070505 -118.139601 106 2595ft 202kts
11-Oct-18 22:33 34.021989 -118.115334 171 2594ft 200kts
11-Oct-18 22:34 33.980307 -118.150758 246 2243ft 199kts
11-Oct-18 22:35 33.971902 -118.210548 263 1994ft 185kts
11-Oct-18 22:36 33.966312 -118.264623 263 1999ft 183kts
11-Oct-18 22:37 33.960569 -118.320514 263 1455ft 145kts
11-Oct-18 22:38 33.955768 -118.366484 262 779ft 139kts
11-Oct-18 22:39 33.951174 -118.410940 263 127ft 100kts
11-Oct-18 22:40 33.949278 -118.419456 229 124ft 0kts
11-Oct-18 22:41 33.947358 -118.422353 205 121ft 13kts
11-Oct-18 22:42 33.947154 -118.419177 82 123ft 11kts
11-Oct-18 22:43 33.947805 -118.413779 76 126ft 17kts
11-Oct-18 22:44 33.948491 -118.407467 83 127ft 20kts
11-Oct-18 22:45 33.948903 -118.400773 148 120ft 11kts
11-Oct-18 22:46 33.947689 -118.400563 242 120ft 0kts
11-Oct-18 22:47 33.947682 -118.400579 241 121ft 0kts
11-Oct-18 22:48 33.947682 -118.400579 241 121ft 0kts
11-Oct-18 22:49 33.947682 -118.400579 241 121ft 0kts
11-Oct-18 22:50 33.947682 -118.400579 241 121ft 0kts
11-Oct-18 22:51 33.947682 -118.400579 241 121ft 0kts
11-Oct-18 22:52 33.947682 -118.400579 241 121ft 0kts
11-Oct-18 22:53 33.947682 -118.400579 241 121ft 0kts
11-Oct-18 22:54 33.947682 -118.400579 241 121ft 0kts

Navigation Log

Ident Type
Flight plan parsing failed, navigation log unavailable